Usol'ye-Sibirskoye, Russia
Current Conditions -  °F | °C
As of 11:30 AM on Wednesday 26 Nov 2014 (Local Time) from UIII Reporting Station
Clear Clear  
Wind Chill: -21°   Ceiling: Unl
Heat Index: -9°   Visibility: 6mi
Dew Point: -17°   Wind: 4mph
Humidity: 71%   Direction: 50°NE
Pressure: 29.94"   Gusts: NA
Location:  52.45°N, 103.39°E
Report Text: UIII 260330Z 05002MPS CAVOK M23/M27 Q1014 NOSIG RMK QFE716/095530810360
Loading
Personal Weather Stations






























Interactive Weather Map New forecast layout! Learn more

10-Day Weather Forecast

Advertisements
Track Severe Weather on mobile